createdAt,value
2022-10-30T00:00:36.632Z,38.03
2022-10-30T00:03:04.139Z,43.05
2022-10-30T00:05:31.039Z,47.85
2022-10-30T00:07:58.806Z,42.03
2022-10-30T00:10:25.537Z,35.25
2022-10-30T00:12:52.061Z,43.58
2022-10-30T00:15:18.540Z,36.20
2022-10-30T00:17:44.959Z,37.80
2022-10-30T00:20:11.462Z,35.28
2022-10-30T00:22:38.080Z,38.58
2022-10-30T00:25:05.348Z,40.22
2022-10-30T00:27:31.802Z,45.03
2022-10-30T00:29:58.244Z,38.30
2022-10-30T00:32:24.702Z,39.95
2022-10-30T00:34:51.186Z,39.45
2022-10-30T00:37:17.609Z,33.50
2022-10-30T00:39:45.332Z,36.55
2022-10-30T00:42:16.233Z,41.15
2022-10-30T00:44:46.871Z,37.63
2022-10-30T00:47:33.580Z,41.22
2022-10-30T00:50:15.068Z,54.78
2022-10-30T00:52:49.309Z,44.47
2022-10-30T00:55:21.954Z,42.40
2022-10-30T00:57:50.811Z,42.72
2022-10-30T01:00:20.555Z,47.50
2022-10-30T01:02:47.358Z,48.05
2022-10-30T01:05:17.345Z,45.88
2022-10-30T01:07:43.973Z,48.83
2022-10-30T01:10:11.069Z,49.67
2022-10-30T01:12:38.920Z,59.80
2022-10-30T01:15:06.485Z,63.30
2022-10-30T01:17:57.400Z,52.75
2022-10-30T01:20:33.324Z,48.63
2022-10-30T01:23:16.016Z,55.75
2022-10-30T01:26:00.133Z,89.00
2022-10-30T01:28:50.261Z,50.88
2022-10-30T01:34:21.792Z,62.85
2022-10-30T01:37:14.007Z,73.97
2022-10-30T01:39:41.602Z,68.93
2022-10-30T01:42:49.494Z,90.80
2022-10-30T01:45:23.772Z,65.65
2022-10-30T01:48:09.006Z,75.30
2022-10-30T01:50:57.692Z,89.65
2022-10-30T01:53:45.563Z,79.00
2022-10-30T01:56:20.066Z,73.18
2022-10-30T01:59:09.109Z,67.18
2022-10-30T02:01:37.731Z,92.50
2022-10-30T02:09:03.473Z,89.47
2022-10-30T02:11:32.485Z,72.32
2022-10-30T02:14:02.236Z,99.80
2022-10-30T02:16:28.643Z,71.82
2022-10-30T02:18:55.059Z,89.13
2022-10-30T02:21:21.493Z,118.43
2022-10-30T02:23:47.983Z,70.97
2022-10-30T02:26:14.393Z,71.05
2022-10-30T02:28:40.812Z,72.30
2022-10-30T02:31:07.572Z,75.65
2022-10-30T02:33:34.137Z,79.28
2022-10-30T02:36:00.549Z,74.13
2022-10-30T02:38:27.029Z,103.30
2022-10-30T02:40:53.468Z,90.20
2022-10-30T02:43:19.875Z,112.65
2022-10-30T02:45:51.365Z,113.13
2022-10-30T02:48:18.078Z,60.40
2022-10-30T02:50:44.517Z,93.18
2022-10-30T02:53:11.158Z,102.03
2022-10-30T02:55:37.766Z,89.80
2022-10-30T02:58:04.230Z,82.63
2022-10-30T03:00:30.657Z,102.85
2022-10-30T03:02:57.396Z,75.20
2022-10-30T03:05:24.749Z,85.85
2022-10-30T03:07:51.537Z,74.88
2022-10-30T03:10:18.513Z,96.53
2022-10-30T03:12:44.927Z,105.68
2022-10-30T03:15:11.402Z,102.95
2022-10-30T03:17:37.932Z,86.70
2022-10-30T03:20:04.627Z,77.60
2022-10-30T03:22:31.266Z,95.80
2022-10-30T03:24:57.709Z,83.25
2022-10-30T03:27:24.138Z,117.15
2022-10-30T03:29:50.712Z,80.20
2022-10-30T03:32:17.273Z,92.22
2022-10-30T03:34:43.895Z,71.05
2022-10-30T03:37:10.312Z,112.88
2022-10-30T03:39:36.775Z,90.65
2022-10-30T03:42:03.179Z,83.30
2022-10-30T03:44:29.641Z,93.50
2022-10-30T03:46:56.468Z,95.55
2022-10-30T03:49:22.992Z,71.20
2022-10-30T03:51:49.435Z,73.05
2022-10-30T03:54:15.857Z,89.78
2022-10-30T03:56:42.275Z,101.25
2022-10-30T03:59:08.687Z,94.90
2022-10-30T04:01:35.321Z,109.47
2022-10-30T04:04:01.822Z,96.05
2022-10-30T04:06:28.371Z,96.38
2022-10-30T04:08:55.345Z,84.78
2022-10-30T04:11:21.847Z,85.07
2022-10-30T04:13:48.408Z,80.15
2022-10-30T04:16:14.869Z,91.90
2022-10-30T04:18:41.288Z,82.72
2022-10-30T04:21:07.740Z,80.78
2022-10-30T04:23:34.244Z,69.95
2022-10-30T04:26:01.646Z,74.10
2022-10-30T04:28:28.148Z,68.20
2022-10-30T04:30:54.544Z,79.20
2022-10-30T04:33:21.365Z,59.22
2022-10-30T04:35:47.813Z,77.63
2022-10-30T04:38:16.031Z,69.30
2022-10-30T04:40:43.791Z,87.35
2022-10-30T04:43:11.138Z,69.55
2022-10-30T04:45:38.225Z,88.13
2022-10-30T04:48:13.637Z,74.70
2022-10-30T04:50:40.127Z,68.53
2022-10-30T04:53:10.247Z,74.38
2022-10-30T04:55:36.671Z,62.88
2022-10-30T04:58:03.446Z,55.28
2022-10-30T05:00:31.188Z,78.95
2022-10-30T05:03:04.043Z,82.28
2022-10-30T05:05:31.647Z,64.07
2022-10-30T05:07:58.316Z,85.93
2022-10-30T05:10:25.280Z,76.78
2022-10-30T05:12:53.753Z,66.05
2022-10-30T05:15:21.091Z,81.70
2022-10-30T05:17:51.341Z,88.85
2022-10-30T05:20:18.981Z,81.22
2022-10-30T05:22:45.724Z,55.58
2022-10-30T05:25:12.182Z,54.28
2022-10-30T05:27:38.821Z,74.05
2022-10-30T05:30:05.728Z,74.47
2022-10-30T05:32:32.176Z,70.57
2022-10-30T05:34:58.798Z,67.45
2022-10-30T05:37:25.263Z,57.17
2022-10-30T05:39:51.749Z,62.78
2022-10-30T05:42:18.177Z,56.90
2022-10-30T05:45:00.486Z,67.07
2022-10-30T05:47:28.015Z,61.78
2022-10-30T05:49:54.574Z,60.53
2022-10-30T05:52:21.122Z,62.95
2022-10-30T05:54:47.541Z,46.53
2022-10-30T05:57:13.961Z,61.75
2022-10-30T05:59:40.526Z,55.30
2022-10-30T06:02:07.042Z,54.25
2022-10-30T06:04:33.543Z,58.38
2022-10-30T06:07:00.256Z,92.97
2022-10-30T06:09:26.670Z,47.72
2022-10-30T06:11:53.566Z,79.30
2022-10-30T06:14:19.981Z,79.97
2022-10-30T06:16:46.520Z,62.13
2022-10-30T06:19:17.436Z,66.05
2022-10-30T06:21:45.611Z,55.92
2022-10-30T06:24:12.150Z,51.10
2022-10-30T06:26:38.583Z,56.50
2022-10-30T06:29:05.033Z,55.33
2022-10-30T06:31:31.603Z,73.05
2022-10-30T06:33:58.131Z,71.40
2022-10-30T06:36:24.549Z,55.28
2022-10-30T06:38:50.974Z,62.72
2022-10-30T06:41:17.428Z,73.25
2022-10-30T06:43:43.892Z,69.28
2022-10-30T06:46:10.388Z,68.70
2022-10-30T06:48:36.826Z,53.65
2022-10-30T06:51:03.337Z,50.10
2022-10-30T06:53:29.771Z,37.63
2022-10-30T06:56:03.775Z,44.42
2022-10-30T06:58:30.286Z,38.92
2022-10-30T07:01:00.445Z,44.10
2022-10-30T07:03:27.062Z,41.17
2022-10-30T07:05:53.603Z,55.17
2022-10-30T07:08:20.029Z,61.70
2022-10-30T07:10:46.455Z,55.17
2022-10-30T07:13:12.905Z,56.58
2022-10-30T07:15:39.407Z,42.53
2022-10-30T07:18:06.086Z,49.35
2022-10-30T07:20:34.724Z,52.55
2022-10-30T07:23:02.160Z,55.65
2022-10-30T07:25:28.657Z,80.20
2022-10-30T07:27:56.893Z,132.45
2022-10-30T07:32:59.738Z,28.08
2022-10-30T07:35:26.464Z,27.35
2022-10-30T07:37:53.166Z,22.50
2022-10-30T07:40:19.728Z,23.67
2022-10-30T07:42:46.507Z,21.33
2022-10-30T07:45:12.999Z,24.40
2022-10-30T07:47:43.885Z,18.90
2022-10-30T07:50:11.106Z,26.88
2022-10-30T07:52:37.631Z,16.63
2022-10-30T07:55:05.483Z,19.08
2022-10-30T07:57:38.943Z,19.17
2022-10-30T08:00:07.552Z,15.70
2022-10-30T08:02:34.109Z,22.73
2022-10-30T08:05:00.828Z,20.27
2022-10-30T08:07:31.425Z,19.02
2022-10-30T08:09:58.031Z,20.77
2022-10-30T08:12:25.214Z,18.95
2022-10-30T08:14:52.776Z,19.40
2022-10-30T08:17:20.153Z,17.67
2022-10-30T08:19:46.598Z,18.90
2022-10-30T08:22:14.009Z,18.98
2022-10-30T08:24:40.694Z,16.13
2022-10-30T08:27:07.193Z,19.42
2022-10-30T08:29:36.829Z,16.85
2022-10-30T08:32:03.229Z,19.63
2022-10-30T08:34:32.651Z,18.80
2022-10-30T08:37:00.048Z,16.90
2022-10-30T08:39:26.502Z,25.83
2022-10-30T08:41:53.022Z,18.65
2022-10-30T08:44:19.567Z,20.33
2022-10-30T08:46:46.037Z,21.52
2022-10-30T08:49:12.456Z,20.92
2022-10-30T08:51:38.876Z,20.02
2022-10-30T08:54:05.523Z,14.95
2022-10-30T08:56:31.946Z,17.08
2022-10-30T08:58:58.503Z,20.50
2022-10-30T09:01:25.029Z,23.83
2022-10-30T09:03:51.792Z,20.52
2022-10-30T09:06:18.274Z,16.17
2022-10-30T09:08:46.514Z,18.17
2022-10-30T09:11:13.025Z,24.17
2022-10-30T09:13:39.570Z,15.13
2022-10-30T09:16:06.420Z,18.13
2022-10-30T09:18:32.831Z,14.40
2022-10-30T09:21:03.043Z,20.92
2022-10-30T09:23:33.787Z,18.35
2022-10-30T09:26:00.190Z,23.20
2022-10-30T09:28:26.602Z,15.57
2022-10-30T09:30:56.386Z,19.33
2022-10-30T09:33:23.362Z,17.58
2022-10-30T09:35:49.842Z,13.45
2022-10-30T09:38:16.273Z,14.13
2022-10-30T09:41:20.355Z,16.35
2022-10-30T09:44:04.223Z,13.82
2022-10-30T09:46:50.015Z,16.98
2022-10-30T09:49:43.947Z,12.32
2022-10-30T09:52:29.866Z,17.90
2022-10-30T09:55:11.165Z,14.43
2022-10-30T09:57:58.219Z,14.63
2022-10-30T10:00:33.340Z,15.80
2022-10-30T10:03:17.758Z,19.73
2022-10-30T10:05:48.602Z,15.80
2022-10-30T10:08:20.663Z,17.98
2022-10-30T10:10:59.696Z,15.25
2022-10-30T10:13:38.528Z,15.75
2022-10-30T10:16:14.489Z,15.73
2022-10-30T10:18:48.250Z,14.55
2022-10-30T10:21:25.283Z,13.43
2022-10-30T10:23:55.626Z,15.45
2022-10-30T10:26:46.790Z,16.25
2022-10-30T10:29:32.108Z,16.70
2022-10-30T10:32:10.601Z,12.52
2022-10-30T10:35:04.705Z,15.27
2022-10-30T10:37:46.651Z,16.73
2022-10-30T10:40:35.507Z,14.98
2022-10-30T10:43:11.224Z,13.93
2022-10-30T10:45:49.696Z,13.20
2022-10-30T10:48:28.414Z,15.68
2022-10-30T10:51:06.513Z,18.27
2022-10-30T10:53:56.205Z,14.75
2022-10-30T10:56:29.662Z,15.82
2022-10-30T10:59:00.841Z,15.00
2022-10-30T11:01:36.957Z,15.43
2022-10-30T11:04:18.023Z,13.32
2022-10-30T11:06:51.004Z,14.55
2022-10-30T11:09:19.921Z,15.30
2022-10-30T11:11:48.013Z,17.45
2022-10-30T11:14:17.152Z,17.60
2022-10-30T11:17:01.844Z,14.75
2022-10-30T11:19:30.123Z,13.70
2022-10-30T11:21:58.015Z,17.48
2022-10-30T11:24:33.023Z,13.82
2022-10-30T11:27:28.488Z,19.58
2022-10-30T11:32:29.397Z,15.68
2022-10-30T11:35:07.947Z,10.80
2022-10-30T11:37:39.786Z,12.30
2022-10-30T11:40:08.306Z,15.77
2022-10-30T11:42:35.432Z,12.55
2022-10-30T11:45:02.752Z,15.00
2022-10-30T11:47:37.006Z,16.75
2022-10-30T11:50:07.834Z,20.95
2022-10-30T11:52:41.892Z,15.90
2022-10-30T11:55:18.414Z,14.93
2022-10-30T11:57:51.533Z,13.27
2022-10-30T12:00:26.835Z,12.02
2022-10-30T12:02:58.345Z,15.90
2022-10-30T12:05:43.707Z,15.68
2022-10-30T12:08:18.334Z,13.93
2022-10-30T12:10:46.617Z,15.45
2022-10-30T12:13:21.237Z,11.60
2022-10-30T12:15:50.853Z,15.48
2022-10-30T12:18:24.894Z,12.77
2022-10-30T12:20:54.444Z,16.23
2022-10-30T12:23:24.732Z,13.95
2022-10-30T12:26:12.453Z,15.57
2022-10-30T12:28:40.164Z,14.25
2022-10-30T12:31:14.946Z,18.30
2022-10-30T12:34:07.728Z,13.77
2022-10-30T12:36:40.657Z,20.13
2022-10-30T12:39:23.625Z,12.65
2022-10-30T12:42:06.219Z,20.35
2022-10-30T12:44:37.734Z,13.55
2022-10-30T12:47:17.869Z,17.17
2022-10-30T12:50:02.163Z,17.25
2022-10-30T12:52:31.689Z,15.32
2022-10-30T12:55:24.981Z,15.63
2022-10-30T12:58:22.587Z,12.73
2022-10-30T13:01:01.843Z,16.75
2022-10-30T13:03:42.371Z,13.70
2022-10-30T13:06:23.767Z,15.63
2022-10-30T13:09:04.244Z,15.25
2022-10-30T13:11:44.751Z,14.63
2022-10-30T13:14:21.769Z,18.75
2022-10-30T13:16:51.025Z,18.25
2022-10-30T13:19:17.740Z,18.20
2022-10-30T13:22:02.338Z,15.30
2022-10-30T13:25:00.723Z,16.15
2022-10-30T13:27:42.390Z,17.60
2022-10-30T13:30:20.370Z,16.60
2022-10-30T13:33:15.029Z,15.25
2022-10-30T13:35:51.926Z,16.55
2022-10-30T13:38:40.294Z,14.60
2022-10-30T13:41:21.945Z,13.60
2022-10-30T13:44:13.401Z,12.70
2022-10-30T13:47:10.233Z,15.00
2022-10-30T13:50:08.753Z,14.32
2022-10-30T13:52:38.401Z,16.08
2022-10-30T13:55:25.885Z,17.50
2022-10-30T13:58:15.967Z,14.70
2022-10-30T14:01:04.732Z,14.13
2022-10-30T14:03:58.983Z,10.90
2022-10-30T14:06:41.106Z,13.60
2022-10-30T14:09:33.443Z,16.17
2022-10-30T14:12:49.762Z,14.30
2022-10-30T14:15:26.428Z,13.55
2022-10-30T14:18:11.558Z,15.32
2022-10-30T14:20:43.217Z,16.50
2022-10-30T14:23:19.473Z,14.98
2022-10-30T14:26:04.237Z,12.68
2022-10-30T14:28:36.191Z,17.23
2022-10-30T14:31:05.913Z,13.20
2022-10-30T14:33:44.292Z,13.35
2022-10-30T14:36:22.561Z,14.95
2022-10-30T14:39:11.982Z,21.25
2022-10-30T14:44:52.783Z,11.88
2022-10-30T14:47:39.206Z,14.73
2022-10-30T14:50:33.631Z,13.77
2022-10-30T14:53:18.756Z,17.42
2022-10-30T14:56:12.012Z,16.38
2022-10-30T14:58:39.151Z,23.65
2022-10-30T15:01:29.463Z,17.23
2022-10-30T15:04:33.817Z,17.85
2022-10-30T15:07:29.379Z,13.32
2022-10-30T15:10:14.856Z,19.30
2022-10-30T15:13:05.445Z,14.50
2022-10-30T15:15:32.564Z,14.43
2022-10-30T15:18:04.125Z,20.00
2022-10-30T15:20:32.725Z,14.38
2022-10-30T15:23:07.351Z,18.95
2022-10-30T15:25:38.053Z,13.95
2022-10-30T15:28:04.991Z,11.15
2022-10-30T15:30:31.642Z,17.13
2022-10-30T15:32:58.549Z,16.90
2022-10-30T15:35:27.222Z,17.73
2022-10-30T15:38:00.957Z,14.48
2022-10-30T15:40:28.594Z,13.45
2022-10-30T15:42:57.039Z,14.07
2022-10-30T15:45:45.835Z,18.30
2022-10-30T15:48:22.803Z,13.52
2022-10-30T15:51:16.720Z,19.88
2022-10-30T15:53:43.091Z,19.65
2022-10-30T15:56:32.697Z,26.25
2022-10-30T16:01:38.976Z,12.95
2022-10-30T16:04:17.854Z,16.48
2022-10-30T16:06:59.692Z,11.23
2022-10-30T16:09:27.499Z,18.52
2022-10-30T16:11:58.402Z,19.52
2022-10-30T16:14:27.499Z,14.48
2022-10-30T16:16:54.056Z,14.68
2022-10-30T16:19:29.157Z,13.60
2022-10-30T16:21:57.252Z,15.77
2022-10-30T16:24:29.561Z,16.30
2022-10-30T16:27:23.244Z,18.20
2022-10-30T16:29:52.178Z,16.38
2022-10-30T16:32:21.218Z,18.30
2022-10-30T16:34:49.771Z,21.85
2022-10-30T16:37:32.065Z,14.85
2022-10-30T16:40:02.701Z,15.25
2022-10-30T16:42:29.514Z,15.20
2022-10-30T16:45:19.338Z,15.32
2022-10-30T16:47:51.754Z,18.33
2022-10-30T16:50:22.786Z,16.30
2022-10-30T16:52:49.595Z,14.45
2022-10-30T16:55:21.367Z,14.00
2022-10-30T16:57:56.790Z,18.80
2022-10-30T17:00:27.237Z,15.90
2022-10-30T17:02:56.378Z,19.45
2022-10-30T17:05:26.156Z,17.13
2022-10-30T17:08:00.276Z,17.10
2022-10-30T17:10:57.775Z,15.25
2022-10-30T17:13:55.851Z,19.23
2022-10-30T17:16:26.692Z,16.83
2022-10-30T17:18:55.550Z,16.17
2022-10-30T17:21:25.206Z,16.15
2022-10-30T17:24:00.055Z,16.20
2022-10-30T17:26:29.040Z,14.48
2022-10-30T17:28:58.541Z,15.70
2022-10-30T17:31:40.016Z,16.33
2022-10-30T17:34:23.040Z,24.33
2022-10-30T17:36:53.727Z,24.48
2022-10-30T17:39:21.466Z,21.98
2022-10-30T17:41:48.907Z,30.60
2022-10-30T17:44:20.417Z,24.17
2022-10-30T17:46:47.005Z,25.45
2022-10-30T17:49:28.258Z,27.00
2022-10-30T17:51:54.920Z,25.50
2022-10-30T17:54:23.072Z,28.08
2022-10-30T17:56:49.718Z,27.38
2022-10-30T17:59:16.455Z,24.70
2022-10-30T18:01:43.359Z,28.40
2022-10-30T18:04:19.708Z,31.83
2022-10-30T18:09:13.920Z,26.17
2022-10-30T18:11:40.414Z,25.52
2022-10-30T18:14:07.031Z,23.83
2022-10-30T18:16:33.457Z,27.50
2022-10-30T18:19:00.149Z,27.13
2022-10-30T18:21:31.332Z,27.50
2022-10-30T18:23:57.895Z,27.10
2022-10-30T18:26:26.411Z,20.65
2022-10-30T18:28:53.890Z,24.52
2022-10-30T18:31:22.762Z,21.77
2022-10-30T18:33:49.675Z,21.98
2022-10-30T18:36:18.383Z,20.60
2022-10-30T18:38:45.608Z,17.50
2022-10-30T18:41:33.597Z,24.15
2022-10-30T18:44:00.285Z,21.02
2022-10-30T18:46:28.164Z,17.77
2022-10-30T18:48:54.853Z,19.05
2022-10-30T18:51:25.315Z,18.90
2022-10-30T18:53:52.628Z,24.90
2022-10-30T18:56:27.544Z,22.38
2022-10-30T18:58:58.654Z,20.60
2022-10-30T19:01:28.846Z,19.40
2022-10-30T19:03:55.962Z,21.08
2022-10-30T19:06:31.101Z,19.60
2022-10-30T19:08:57.533Z,20.77
2022-10-30T19:11:25.268Z,27.90
2022-10-30T19:13:55.305Z,21.77
2022-10-30T19:16:24.445Z,27.27
2022-10-30T19:18:51.017Z,22.30
2022-10-30T19:21:20.279Z,21.63
2022-10-30T19:23:47.335Z,34.58
2022-10-30T19:26:15.933Z,27.10
2022-10-30T19:28:42.777Z,30.35
2022-10-30T19:31:17.817Z,27.23
2022-10-30T19:33:44.945Z,29.30
2022-10-30T19:36:31.847Z,25.13
2022-10-30T19:38:58.386Z,31.20
2022-10-30T19:41:25.143Z,27.67
2022-10-30T19:43:52.499Z,31.50
2022-10-30T19:46:19.340Z,21.08
2022-10-30T19:49:01.107Z,25.48
2022-10-30T19:51:29.041Z,22.05
2022-10-30T19:53:55.829Z,34.90
2022-10-30T19:56:22.279Z,26.70
2022-10-30T19:58:49.358Z,29.10
2022-10-30T20:01:16.160Z,25.80
2022-10-30T20:03:42.946Z,30.80
2022-10-30T20:06:13.112Z,32.72
2022-10-30T20:08:40.161Z,31.02
2022-10-30T20:11:07.155Z,30.73
2022-10-30T20:13:34.005Z,28.15
2022-10-30T20:16:04.603Z,31.00
2022-10-30T20:18:33.975Z,34.67
2022-10-30T20:21:03.070Z,38.38
2022-10-30T20:23:32.068Z,33.20
2022-10-30T20:26:02.291Z,34.58
2022-10-30T20:28:32.779Z,46.80
2022-10-30T20:30:59.575Z,44.22
2022-10-30T20:33:26.497Z,35.35
2022-10-30T20:35:54.620Z,34.35
2022-10-30T20:38:31.167Z,38.90
2022-10-30T20:40:59.530Z,31.70
2022-10-30T20:43:31.654Z,39.22
2022-10-30T20:45:59.324Z,33.35
2022-10-30T20:48:26.984Z,33.53
2022-10-30T20:50:54.593Z,34.28
2022-10-30T20:53:21.289Z,43.03
2022-10-30T20:55:47.892Z,38.22
2022-10-30T20:58:14.912Z,34.72
2022-10-30T21:00:41.914Z,46.78
2022-10-30T21:03:10.700Z,37.15
2022-10-30T21:05:43.884Z,36.22
2022-10-30T21:08:11.218Z,35.55
2022-10-30T21:10:38.255Z,37.38
2022-10-30T21:13:08.560Z,35.05
2022-10-30T21:15:39.332Z,38.95
2022-10-30T21:18:05.787Z,40.03
2022-10-30T21:20:32.223Z,44.78
2022-10-30T21:22:58.699Z,49.45
2022-10-30T21:25:25.261Z,49.33
2022-10-30T21:27:51.666Z,39.95
2022-10-30T21:30:18.089Z,43.72
2022-10-30T21:32:45.540Z,39.88
2022-10-30T21:35:11.980Z,39.42
2022-10-30T21:37:38.372Z,34.72
2022-10-30T21:40:05.159Z,47.95
2022-10-30T21:42:31.602Z,48.13
2022-10-30T21:44:58.106Z,50.75
2022-10-30T21:47:24.548Z,52.50
2022-10-30T21:49:50.951Z,40.53
2022-10-30T21:52:17.412Z,45.63
2022-10-30T21:54:43.842Z,46.03
2022-10-30T21:59:41.635Z,51.08
2022-10-30T22:02:13.509Z,42.72
2022-10-30T22:04:40.055Z,43.67
2022-10-30T22:07:06.558Z,42.55
2022-10-30T22:09:33.009Z,42.85
2022-10-30T22:12:00.384Z,43.72
2022-10-30T22:14:26.958Z,43.15
2022-10-30T22:16:53.394Z,53.10
2022-10-30T22:19:19.823Z,44.58
2022-10-30T22:21:46.281Z,53.15
2022-10-30T22:24:13.681Z,49.42
2022-10-30T22:26:40.242Z,41.33
2022-10-30T22:29:06.723Z,49.75
2022-10-30T22:31:33.183Z,45.53
2022-10-30T22:34:01.258Z,48.60
2022-10-30T22:36:33.472Z,51.70
2022-10-30T22:39:05.765Z,46.53
2022-10-30T22:41:37.352Z,46.95
2022-10-30T22:44:09.468Z,49.65
2022-10-30T22:46:36.567Z,52.47
2022-10-30T22:49:03.103Z,40.78
2022-10-30T22:51:32.635Z,47.75
2022-10-30T22:54:01.324Z,51.20
2022-10-30T22:56:30.444Z,57.88
2022-10-30T22:58:57.514Z,53.65
2022-10-30T23:01:27.147Z,58.33
2022-10-30T23:03:55.934Z,57.28
2022-10-30T23:06:22.696Z,42.80
2022-10-30T23:08:51.156Z,47.08
2022-10-30T23:11:17.626Z,55.10
2022-10-30T23:13:45.353Z,53.60
2022-10-30T23:16:21.667Z,58.72
2022-10-30T23:18:49.049Z,53.22
2022-10-30T23:21:22.003Z,51.15
2022-10-30T23:23:49.251Z,49.95
2022-10-30T23:26:24.754Z,47.47
2022-10-30T23:28:54.510Z,44.95
2022-10-30T23:31:37.734Z,83.88
2022-10-30T23:34:08.892Z,57.95
2022-10-30T23:36:35.764Z,66.60
2022-10-30T23:39:05.243Z,44.35
2022-10-30T23:41:34.235Z,57.80
2022-10-30T23:44:05.783Z,44.22
2022-10-30T23:46:33.945Z,47.90
2022-10-30T23:49:00.481Z,57.03
2022-10-30T23:51:26.892Z,56.67
2022-10-30T23:53:53.317Z,49.90
2022-10-30T23:56:20.530Z,54.28
2022-10-30T23:58:48.972Z,63.10
